Terminal Aerodrome Forecast
Issued by NWS

Home | Current Version | Previous Version | Text Only | Print | Product List | Glossary On
Versions: 1 2 3 4 5 6 7 8 9 10 11 12 13 14 15 16 17 18 19 20 21 22 23 24 25 26
000
FTUS41 KRNK 062331
TAFLWB
TAF
KLWB 062331Z 0700/0724 00000KT P6SM VCSH SCT080 BKN250
     FM070500 00000KT 5SM BR SCT100
     FM070900 03003KT 1/4SM FG BKN001
     FM071300 VRB03KT P6SM SCT025
     FM071900 13003KT P6SM VCSH BKN040=

USA.gov is the U.S. government's official web portal to all federal, state and local government web resources and services.